Time;durP1;ratioP1;P1;durP2;ratioP2;P2;SDS_P1;SDS_P2;PMS_P1;PMS_P2;Temp;Humidity;BMP_temperature;BMP_pressure;BME280_temperature;BME280_humidity;BME280_pressure;Samples;Min_cycle;Max_cycle;Signal;HPM_P1;HPM_P2
2022/01/16 00:04:06;;;;;;;6.30;1.80;;;;;;;3.90;57.72;101037.28;117438;1182;23488;-64
2022/01/16 00:06:38;;;;;;;3.50;1.40;;;;;;;3.89;57.62;101039.89;117412;1183;23455;-55
2022/01/16 00:09:24;;;;;;;3.30;1.40;;;;;;;3.90;57.50;101038.69;117368;1186;23581;-53
2022/01/16 00:11:56;;;;;;;4.50;1.40;;;;;;;3.90;57.61;101040.94;117367;1186;21845;-53
2022/01/16 00:14:25;;;;;;;4.80;1.70;;;;;;;3.90;57.60;101047.36;117348;1185;22963;-54
2022/01/16 00:16:54;;;;;;;5.00;1.80;;;;;;;3.89;57.64;101049.94;117372;1185;21855;-53
2022/01/16 00:19:22;;;;;;;8.50;2.50;;;;;;;3.90;57.54;101046.16;117381;1186;21863;-54
2022/01/16 00:21:50;;;;;;;5.30;2.10;;;;;;;3.89;57.40;101049.09;117395;1182;21847;-64
2022/01/16 00:24:19;;;;;;;4.60;2.10;;;;;;;3.88;57.58;101045.59;117473;1183;21892;-53
2022/01/16 00:26:47;;;;;;;6.30;2.20;;;;;;;3.87;57.67;101042.63;117388;1186;21882;-64
2022/01/16 00:29:15;;;;;;;7.80;2.20;;;;;;;3.85;57.54;101036.31;117420;1182;21895;-64
2022/01/16 00:31:44;;;;;;;6.70;2.60;;;;;;;3.85;57.59;101034.40;117394;1186;21855;-53
2022/01/16 00:34:13;;;;;;;4.80;2.30;;;;;;;3.85;57.59;101042.55;117426;1182;23525;-63
2022/01/16 00:36:42;;;;;;;5.40;2.50;;;;;;;3.84;57.45;101047.20;117400;1185;23458;-64
2022/01/16 00:39:10;;;;;;;5.40;2.40;;;;;;;3.85;57.69;101056.42;117404;1185;22619;-54
2022/01/16 00:41:38;;;;;;;8.40;4.20;;;;;;;3.88;57.72;101050.10;117373;1186;21869;-53
2022/01/16 00:44:07;;;;;;;10.50;4.60;;;;;;;3.90;57.57;101051.00;117384;1186;21907;-62
2022/01/16 00:46:35;;;;;;;6.90;2.40;;;;;;;3.91;57.46;101042.17;117404;1181;22840;-54
2022/01/16 00:49:04;;;;;;;7.40;2.50;;;;;;;3.90;57.47;101044.42;117406;1185;23471;-63
2022/01/16 00:51:34;;;;;;;7.20;2.50;;;;;;;3.88;57.47;101047.32;117449;1185;23039;-64
2022/01/16 00:54:02;;;;;;;8.70;2.90;;;;;;;3.87;57.80;101050.59;117417;1185;21863;-63
2022/01/16 00:56:30;;;;;;;5.10;1.90;;;;;;;3.89;57.52;101056.38;117411;1183;21867;-53
2022/01/16 00:58:58;;;;;;;5.10;2.20;;;;;;;3.89;57.57;101063.49;117414;1183;23474;-54
2022/01/16 01:01:27;;;;;;;5.80;2.30;;;;;;;3.91;57.78;101077.60;117440;1181;21862;-54
2022/01/16 01:03:57;;;;;;;5.60;2.50;;;;;;;3.93;57.61;101096.09;117387;1182;23584;-54
2022/01/16 01:06:26;;;;;;;5.40;1.90;;;;;;;3.95;57.40;101108.77;117373;1183;22308;-63
2022/01/16 01:08:54;;;;;;;6.30;2.20;;;;;;;3.94;57.68;101140.72;117399;1185;23554;-63
2022/01/16 01:11:27;;;;;;;4.60;1.70;;;;;;;3.93;57.62;101171.95;117350;1185;21852;-64
2022/01/16 01:16:48;;;;;;;5.70;1.90;;;;;;;3.95;57.43;101101.15;117334;1182;22804;-64
2022/01/16 01:19:18;;;;;;;5.20;2.00;;;;;;;3.94;57.55;101092.81;117362;1182;21851;-53
2022/01/16 01:21:46;;;;;;;7.40;2.60;;;;;;;3.95;57.42;100984.64;117427;1186;21854;-63
2022/01/16 01:24:15;;;;;;;5.30;2.10;;;;;;;3.95;57.57;100899.72;117386;1185;23485;-64
2022/01/16 01:26:54;;;;;;;4.70;2.30;;;;;;;3.93;57.25;100924.33;117315;1182;23449;-52
2022/01/16 01:29:22;;;;;;;5.60;2.20;;;;;;;3.91;57.36;100953.27;117415;1186;23576;-64
2022/01/16 01:31:52;;;;;;;7.70;3.20;;;;;;;3.89;57.51;100939.18;117439;1183;23471;-64
2022/01/16 01:34:20;;;;;;;4.80;2.00;;;;;;;3.88;57.47;100984.11;117394;1185;22799;-64
2022/01/16 01:36:49;;;;;;;4.30;2.30;;;;;;;3.85;57.35;100983.34;117381;1185;21976;-64
2022/01/16 01:39:18;;;;;;;4.30;1.80;;;;;;;3.84;57.47;100995.82;117338;1183;22967;-54
2022/01/16 01:41:49;;;;;;;2.50;1.70;;;;;;;3.83;57.58;101060.02;117344;1184;23566;-53
2022/01/16 01:52:42;;;;;;;4.40;1.60;;;;;;;3.89;57.42;101082.75;117382;1180;23480;-55
2022/01/16 01:55:11;;;;;;;4.40;1.90;;;;;;;3.89;57.40;101063.14;117331;1185;23480;-63
2022/01/16 01:57:40;;;;;;;4.70;1.90;;;;;;;3.92;57.52;101032.30;117456;1184;21857;-64
2022/01/16 02:00:09;;;;;;;3.20;1.50;;;;;;;3.91;57.56;101055.90;117378;1183;21848;-64
2022/01/16 02:02:54;;;;;;;6.90;1.90;;;;;;;3.91;57.48;101064.92;117384;1185;22922;-53
2022/01/16 02:05:24;;;;;;;3.50;1.70;;;;;;;3.91;57.50;101063.71;117439;1185;21861;-64
2022/01/16 02:07:54;;;;;;;4.80;2.00;;;;;;;3.90;57.51;101065.23;117436;1182;23550;-64
2022/01/16 02:10:24;;;;;;;4.10;1.40;;;;;;;3.89;57.56;101065.74;117402;1186;23566;-64
2022/01/16 02:12:59;;;;;;;3.20;1.30;;;;;;;3.91;57.59;101068.41;117383;1182;21857;-63
2022/01/16 02:15:50;;;;;;;4.20;1.50;;;;;;;3.92;57.53;101085.45;117279;1185;23470;-64
2022/01/16 02:34:39;;;;;;;4.70;1.80;;;;;;;3.84;57.60;101103.47;117377;1188;21854;-53
2022/01/16 02:37:11;;;;;;;4.60;1.80;;;;;;;3.82;57.63;101111.92;117402;1183;22632;-63
2022/01/16 02:39:42;;;;;;;4.70;1.40;;;;;;;3.81;57.48;101126.46;117321;1183;21857;-61
2022/01/16 02:42:11;;;;;;;3.40;1.60;;;;;;;3.80;57.53;101123.14;117430;1185;22934;-63
2022/01/16 02:44:46;;;;;;;4.80;1.60;;;;;;;3.78;57.58;101121.36;117387;1182;23553;-64
2022/01/16 02:47:18;;;;;;;3.20;1.70;;;;;;;3.75;57.63;101121.61;117360;1185;23649;-63
2022/01/16 02:49:47;;;;;;;4.40;1.40;;;;;;;3.72;57.57;101129.89;117377;1182;22870;-64
2022/01/16 02:52:19;;;;;;;6.10;1.70;;;;;;;3.72;57.51;101135.97;117418;1183;23445;-63
2022/01/16 02:54:50;;;;;;;5.60;2.00;;;;;;;3.74;57.45;101143.66;117433;1186;22918;-53
2022/01/16 02:57:19;;;;;;;3.90;1.50;;;;;;;3.76;57.46;101148.73;117444;1186;21992;-63
2022/01/16 02:59:50;;;;;;;4.00;1.40;;;;;;;3.75;57.54;101151.15;117489;1186;22975;-64
2022/01/16 03:02:19;;;;;;;5.40;1.70;;;;;;;3.71;57.57;101150.67;117357;1186;23040;-64
2022/01/16 03:04:47;;;;;;;3.30;1.40;;;;;;;3.74;57.45;101149.55;117373;1185;22988;-53
2022/01/16 03:07:16;;;;;;;4.50;1.80;;;;;;;3.76;57.54;101153.59;117364;1182;21895;-54
2022/01/16 03:10:03;;;;;;;4.50;1.60;;;;;;;3.76;57.39;101158.28;117368;1185;21855;-54
2022/01/16 03:12:32;;;;;;;3.90;1.80;;;;;;;3.77;57.47;101155.00;117417;1183;23635;-63
2022/01/16 03:15:00;;;;;;;6.90;2.10;;;;;;;3.78;57.61;101161.61;117432;1183;23470;-54
2022/01/16 03:17:38;;;;;;;4.60;1.60;;;;;;;3.77;57.59;101163.67;117416;1185;21937;-64
2022/01/16 03:23:11;;;;;;;6.50;1.90;;;;;;;3.78;57.48;101156.92;117384;1182;21855;-53
2022/01/16 03:25:39;;;;;;;7.40;2.20;;;;;;;3.76;57.59;101161.58;117443;1185;23448;-53
2022/01/16 03:28:08;;;;;;;5.70;2.10;;;;;;;3.76;57.55;101166.08;117421;1182;23483;-63
2022/01/16 03:30:37;;;;;;;5.40;2.00;;;;;;;3.75;57.59;101164.33;117432;1186;24167;-64
2022/01/16 03:33:06;;;;;;;5.80;2.20;;;;;;;3.74;57.71;101165.35;117425;1182;23340;-53
2022/01/16 03:35:34;;;;;;;5.00;2.10;;;;;;;3.74;57.75;101162.20;117385;1181;22957;-64
2022/01/16 03:38:03;;;;;;;4.10;1.80;;;;;;;3.73;57.57;101165.33;117412;1182;23457;-53
2022/01/16 03:40:32;;;;;;;5.80;2.40;;;;;;;3.72;57.63;101168.60;117358;1184;23484;-64
2022/01/16 03:43:11;;;;;;;6.00;2.40;;;;;;;3.72;57.72;101161.30;117383;1185;23553;-64
2022/01/16 03:45:45;;;;;;;4.60;1.80;;;;;;;3.72;57.51;101160.43;117395;1183;23455;-53
2022/01/16 03:48:14;;;;;;;4.90;2.00;;;;;;;3.71;57.50;101159.36;117393;1186;23281;-54
2022/01/16 03:50:42;;;;;;;5.50;2.60;;;;;;;3.70;57.54;101156.40;117414;1186;21855;-53
2022/01/16 03:53:10;;;;;;;5.10;2.40;;;;;;;3.70;57.46;101157.42;117435;1182;22648;-54
2022/01/16 03:55:38;;;;;;;9.10;2.30;;;;;;;3.70;57.60;101163.33;117413;1183;23448;-64
2022/01/16 03:58:07;;;;;;;5.00;2.00;;;;;;;3.70;57.63;101169.23;117451;1186;23471;-64
2022/01/16 04:00:35;;;;;;;4.70;2.40;;;;;;;3.70;57.67;101171.68;117409;1182;21851;-63
2022/01/16 04:03:03;;;;;;;5.20;2.30;;;;;;;3.69;57.61;101172.84;117366;1182;23616;-64
2022/01/16 04:05:34;;;;;;;6.40;2.40;;;;;;;3.68;57.61;101175.95;117407;1182;23551;-54
2022/01/16 04:08:04;;;;;;;5.60;2.20;;;;;;;3.68;57.34;101173.50;117430;1183;23455;-63
2022/01/16 04:10:32;;;;;;;5.60;2.30;;;;;;;3.66;57.66;101177.45;117353;1185;23563;-64
2022/01/16 04:13:03;;;;;;;8.40;2.70;;;;;;;3.63;57.63;101177.52;117440;1183;23461;-54
2022/01/16 04:15:31;;;;;;;8.60;2.70;;;;;;;3.62;57.65;101181.83;117374;1185;21860;-54
2022/01/16 04:18:00;;;;;;;5.60;2.20;;;;;;;3.61;57.52;101178.34;117415;1182;23085;-53
2022/01/16 04:20:36;;;;;;;6.80;2.50;;;;;;;3.63;57.61;101180.98;117380;1185;22859;-53
2022/01/16 04:23:04;;;;;;;8.90;2.60;;;;;;;3.61;57.75;101181.12;117407;1184;23573;-53
2022/01/16 04:25:33;;;;;;;7.20;2.30;;;;;;;3.61;57.78;101185.63;117424;1181;22930;-53
2022/01/16 04:28:01;;;;;;;7.80;2.70;;;;;;;3.61;57.64;101191.01;117403;1183;23464;-64
2022/01/16 04:30:29;;;;;;;6.50;2.60;;;;;;;3.61;57.63;101195.00;117447;1180;21855;-63
2022/01/16 04:32:57;;;;;;;5.40;2.70;;;;;;;3.63;57.67;101198.36;117422;1186;21992;-62
2022/01/16 04:35:26;;;;;;;7.10;2.80;;;;;;;3.64;57.62;101198.89;117443;1186;22983;-53
2022/01/16 04:37:54;;;;;;;8.50;2.80;;;;;;;3.63;57.59;101200.10;117353;1182;23553;-62
2022/01/16 04:40:41;;;;;;;4.90;2.00;;;;;;;3.63;57.55;101202.00;117372;1183;23509;-52
2022/01/16 04:46:02;;;;;;;4.40;2.60;;;;;;;3.63;57.56;101207.91;117453;1182;24012;-62
2022/01/16 04:48:30;;;;;;;5.80;2.30;;;;;;;3.63;57.53;101207.02;117399;1182;23524;-63
2022/01/16 04:50:58;;;;;;;8.20;3.20;;;;;;;3.62;57.56;101207.00;117455;1183;23448;-62
2022/01/16 04:53:27;;;;;;;5.40;2.30;;;;;;;3.61;57.59;101205.73;117431;1185;23706;-64
2022/01/16 04:55:55;;;;;;;8.00;2.70;;;;;;;3.60;57.71;101206.77;117418;1182;21854;-62
2022/01/16 04:58:23;;;;;;;4.90;2.00;;;;;;;3.59;57.77;101207.96;117447;1182;21879;-63
2022/01/16 05:00:54;;;;;;;6.60;2.40;;;;;;;3.60;57.72;101202.59;117263;1185;23642;-64
2022/01/16 05:03:24;;;;;;;7.70;2.80;;;;;;;3.59;57.74;101202.39;117474;1186;21857;-63
2022/01/16 05:05:52;;;;;;;7.50;3.50;;;;;;;3.57;57.74;101206.85;118689;1185;21857;-53
2022/01/16 05:08:21;;;;;;;4.40;2.00;;;;;;;3.53;57.72;101215.77;117410;1186;23265;-64
2022/01/16 05:10:55;;;;;;;4.70;2.20;;;;;;;3.53;57.77;101220.27;117435;1183;21909;-53
2022/01/16 05:16:41;;;;;;;6.20;2.90;;;;;;;3.52;57.89;101216.42;117337;1185;21857;-54
2022/01/16 05:18:42;;;;;;;8.60;2.80;;;;;;;3.53;57.68;101222.89;117358;1185;21854;-52
2022/01/16 05:21:10;;;;;;;7.50;2.10;;;;;;;3.53;57.84;101230.52;117415;1183;22815;-66
2022/01/16 05:23:41;;;;;;;5.50;2.10;;;;;;;3.54;57.82;101235.23;117373;1185;22769;-64
2022/01/16 05:26:10;;;;;;;6.80;2.20;;;;;;;3.55;57.66;101240.12;117437;1185;21878;-53
2022/01/16 05:28:38;;;;;;;4.90;2.00;;;;;;;3.55;57.66;101235.08;117436;1186;21856;-64
2022/01/16 05:31:06;;;;;;;7.10;2.70;;;;;;;3.56;57.84;101233.19;117432;1182;21841;-64
2022/01/16 05:33:35;;;;;;;6.30;2.70;;;;;;;3.56;57.62;101243.81;117331;1185;21854;-63
2022/01/16 05:36:04;;;;;;;4.80;2.50;;;;;;;3.55;57.54;101252.09;117455;1182;21859;-54
2022/01/16 05:38:32;;;;;;;5.20;2.20;;;;;;;3.55;57.59;101257.14;117430;1183;22986;-63
2022/01/16 05:41:00;;;;;;;5.90;2.50;;;;;;;3.54;57.55;101256.06;117384;1183;23592;-65
2022/01/16 05:43:28;;;;;;;6.40;2.50;;;;;;;3.52;57.59;101256.89;117436;1183;22966;-54
2022/01/16 05:45:57;;;;;;;6.70;3.10;;;;;;;3.53;57.47;101261.59;117446;1185;21862;-54
2022/01/16 05:48:28;;;;;;;7.10;2.70;;;;;;;3.52;57.69;101257.74;117447;1182;21860;-64
2022/01/16 05:50:57;;;;;;;8.20;3.00;;;;;;;3.51;57.70;101252.33;117431;1182;22635;-64
2022/01/16 05:53:25;;;;;;;6.20;2.70;;;;;;;3.53;57.58;101253.23;117431;1186;23449;-64
2022/01/16 05:55:53;;;;;;;9.10;3.40;;;;;;;3.51;57.66;101258.23;117397;1185;21856;-57
2022/01/16 05:58:22;;;;;;;9.70;2.90;;;;;;;3.49;57.70;101259.02;117447;1186;23452;-53
2022/01/16 06:00:50;;;;;;;6.30;2.60;;;;;;;3.50;57.76;101261.66;117320;1185;23481;-64
2022/01/16 06:03:21;;;;;;;7.40;2.80;;;;;;;3.51;57.58;101270.36;117359;1183;21868;-63
2022/01/16 06:05:49;;;;;;;6.00;2.70;;;;;;;3.50;57.72;101271.02;117440;1186;21851;-55
2022/01/16 06:08:17;;;;;;;8.50;2.70;;;;;;;3.49;57.76;101275.17;117447;1182;21857;-53
2022/01/16 06:10:46;;;;;;;6.80;2.50;;;;;;;3.51;57.64;101276.61;117379;1184;21861;-64
2022/01/16 06:13:34;;;;;;;5.40;2.30;;;;;;;3.54;57.62;101278.77;117396;1186;22091;-64
2022/01/16 06:16:03;;;;;;;6.40;2.90;;;;;;;3.54;57.46;101282.09;117421;1183;23499;-63
2022/01/16 06:18:32;;;;;;;8.60;3.40;;;;;;;3.54;57.62;101281.39;117393;1183;23587;-63
2022/01/16 06:21:00;;;;;;;7.40;2.80;;;;;;;3.54;57.58;101285.40;117328;1185;22955;-53
2022/01/16 06:23:28;;;;;;;8.00;3.40;;;;;;;3.56;57.67;101289.09;117424;1186;22643;-63
2022/01/16 06:25:56;;;;;;;7.00;2.70;;;;;;;3.58;57.68;101291.74;117380;1185;21860;-64
2022/01/16 06:28:25;;;;;;;8.20;3.00;;;;;;;3.60;57.50;101294.24;117378;1185;21865;-63
2022/01/16 06:30:53;;;;;;;9.60;2.80;;;;;;;3.61;57.60;101295.83;118317;1185;21849;-53
2022/01/16 06:33:21;;;;;;;4.80;2.60;;;;;;;3.62;57.56;101298.83;117414;1182;21853;-57
2022/01/16 06:35:50;;;;;;;6.60;2.70;;;;;;;3.67;57.64;101300.71;117315;1185;21854;-54
2022/01/16 06:38:18;;;;;;;8.10;2.70;;;;;;;3.68;57.45;101304.39;117456;1181;22925;-64
2022/01/16 06:40:46;;;;;;;6.60;2.80;;;;;;;3.69;57.35;101308.76;117457;1182;21860;-54
2022/01/16 06:43:14;;;;;;;6.30;2.80;;;;;;;3.70;57.52;101312.96;117393;1185;22946;-53
2022/01/16 06:45:43;;;;;;;9.70;3.10;;;;;;;3.72;57.45;101321.35;117456;1185;23820;-65
2022/01/16 06:48:11;;;;;;;7.00;2.60;;;;;;;3.73;57.50;101324.85;117386;1182;21860;-64
2022/01/16 06:50:40;;;;;;;5.60;2.80;;;;;;;3.73;57.42;101325.39;117420;1183;21869;-52
2022/01/16 06:53:08;;;;;;;5.20;2.50;;;;;;;3.72;57.42;101326.06;117371;1182;23520;-53
2022/01/16 06:55:36;;;;;;;8.80;3.00;;;;;;;3.71;57.43;101328.77;117423;1182;24172;-64
2022/01/16 06:58:04;;;;;;;6.30;2.30;;;;;;;3.71;57.40;101333.83;117438;1183;23468;-64
2022/01/16 07:00:33;;;;;;;6.50;2.80;;;;;;;3.72;57.50;101335.95;117347;1182;21853;-64
2022/01/16 07:03:01;;;;;;;12.20;4.10;;;;;;;3.74;57.62;101337.20;117408;1186;21855;-65
2022/01/16 07:05:30;;;;;;;5.60;2.90;;;;;;;3.79;57.73;101341.51;117352;1185;23595;-54
2022/01/16 07:07:58;;;;;;;8.00;2.70;;;;;;;3.76;57.46;101344.02;117387;1186;22526;-65
2022/01/16 07:10:27;;;;;;;9.30;3.10;;;;;;;3.78;57.46;101351.38;117413;1185;23563;-65
2022/01/16 07:12:55;;;;;;;5.30;2.60;;;;;;;3.81;57.52;101354.27;117351;1185;23566;-54
2022/01/16 07:15:24;;;;;;;6.30;2.50;;;;;;;3.84;57.53;101355.39;117292;1185;21929;-64
2022/01/16 07:17:53;;;;;;;12.70;3.50;;;;;;;3.87;57.74;101364.16;117350;1183;23553;-55
2022/01/16 07:20:21;;;;;;;10.60;3.30;;;;;;;3.88;57.57;101370.12;117418;1182;23579;-65
2022/01/16 07:22:49;;;;;;;8.80;3.40;;;;;;;3.88;57.70;101368.72;117403;1183;22621;-55
2022/01/16 07:25:18;;;;;;;10.10;4.10;;;;;;;3.89;57.50;101371.70;117402;1183;24159;-55
2022/01/16 07:27:46;;;;;;;8.50;2.70;;;;;;;3.90;57.56;101367.56;117369;1185;21865;-54
2022/01/16 07:30:14;;;;;;;7.50;2.60;;;;;;;3.91;57.62;101366.72;117359;1182;23702;-64
2022/01/16 07:32:43;;;;;;;4.90;2.20;;;;;;;3.92;57.60;101365.53;117374;1182;21875;-54
2022/01/16 07:35:11;;;;;;;8.30;3.10;;;;;;;3.93;57.70;101362.10;117380;1183;23475;-54
2022/01/16 07:38:00;;;;;;;5.90;2.20;;;;;;;3.94;57.64;101362.82;117355;1183;21852;-54
2022/01/16 07:40:33;;;;;;;10.10;3.10;;;;;;;3.95;57.52;101366.85;117403;1186;23697;-54
2022/01/16 07:43:02;;;;;;;7.00;2.50;;;;;;;3.94;57.57;101365.93;117433;1182;22626;-64
2022/01/16 07:45:31;;;;;;;7.30;2.40;;;;;;;3.95;57.59;101372.92;117396;1182;24312;-64
2022/01/16 07:47:59;;;;;;;5.30;2.60;;;;;;;3.95;57.66;101383.52;117278;1182;21919;-55
2022/01/16 07:50:28;;;;;;;5.90;2.40;;;;;;;3.97;57.41;101387.39;117336;1182;23547;-64
2022/01/16 07:52:56;;;;;;;5.70;2.30;;;;;;;3.98;57.57;101390.90;117358;1182;22958;-54
2022/01/16 07:55:26;;;;;;;11.60;4.10;;;;;;;3.98;57.59;101391.59;117339;1183;21961;-54
2022/01/16 07:57:54;;;;;;;16.70;5.90;;;;;;;3.99;57.60;101393.37;117301;1185;22511;-55
2022/01/16 08:00:32;;;;;;;19.00;5.60;;;;;;;4.01;57.68;101390.81;117338;1184;23453;-64
2022/01/16 08:03:02;;;;;;;38.80;11.40;;;;;;;4.04;57.86;101388.98;117409;1182;21881;-64
2022/01/16 08:05:31;;;;;;;;;;;;;;;4.07;57.83;101381.27;117422;1186;21835;-64
2022/01/16 08:08:00;;;;;;;17.70;5.20;;;;;;;4.10;57.74;101376.84;117384;1183;22738;-64
2022/01/16 08:10:28;;;;;;;15.70;4.70;;;;;;;4.13;57.54;101372.77;117405;1182;23553;-54
2022/01/16 08:12:58;;;;;;;9.40;3.10;;;;;;;4.16;57.68;101375.83;117400;1185;24169;-64
2022/01/16 08:15:27;;;;;;;6.80;3.10;;;;;;;4.20;57.70;101373.32;117377;1185;24637;-55
2022/01/16 08:17:55;;;;;;;5.40;2.70;;;;;;;4.24;57.86;101380.73;117404;1186;21957;-55
2022/01/16 08:20:23;;;;;;;9.00;2.70;;;;;;;4.28;57.73;101381.38;117362;1185;21898;-55
2022/01/16 08:22:52;;;;;;;11.80;2.80;;;;;;;4.34;57.90;101377.91;117373;1185;22911;-65
2022/01/16 08:25:24;;;;;;;9.10;2.90;;;;;;;4.38;57.78;101374.21;117340;1185;23448;-56
2022/01/16 08:27:52;;;;;;;5.30;2.70;;;;;;;4.41;57.88;101371.15;117379;1176;22859;-67
2022/01/16 08:30:21;;;;;;;5.80;2.70;;;;;;;4.45;57.85;101371.44;117334;1185;21855;-55
2022/01/16 08:32:49;;;;;;;6.00;2.80;;;;;;;4.47;57.80;101374.98;117411;1182;22972;-66
2022/01/16 08:35:20;;;;;;;8.30;4.00;;;;;;;4.49;57.87;101376.58;117392;1185;21998;-56
2022/01/16 08:37:48;;;;;;;9.40;4.10;;;;;;;4.49;57.84;101378.31;117425;1176;22922;-65
2022/01/16 08:40:17;;;;;;;9.60;3.90;;;;;;;4.51;57.85;101380.65;117359;1185;24151;-64
2022/01/16 08:42:45;;;;;;;11.80;4.00;;;;;;;4.57;57.85;101385.16;117401;1183;23359;-64
2022/01/16 08:45:13;;;;;;;8.90;4.40;;;;;;;4.58;57.67;101378.94;117384;1181;22970;-56
2022/01/16 08:47:43;;;;;;;9.50;3.50;;;;;;;4.59;57.57;101378.11;117356;1184;23550;-60
2022/01/16 08:50:11;;;;;;;7.00;3.20;;;;;;;4.58;57.91;101370.95;117326;1182;23572;-57
2022/01/16 08:52:39;;;;;;;11.60;4.40;;;;;;;4.59;57.80;101361.23;117407;1183;22619;-65
2022/01/16 08:55:08;;;;;;;13.90;4.90;;;;;;;4.58;57.66;101356.52;117310;1182;23594;-65
2022/01/16 08:57:37;;;;;;;10.20;4.20;;;;;;;4.57;57.92;101352.67;117342;1180;22925;-56
2022/01/16 09:00:07;;;;;;;15.20;4.90;;;;;;;4.57;57.96;101358.41;117310;1185;21851;-65
2022/01/16 09:02:35;;;;;;;11.40;4.00;;;;;;;4.57;57.82;101359.11;117368;1184;22883;-56
2022/01/16 09:05:04;;;;;;;10.30;4.00;;;;;;;4.60;57.85;101347.88;117425;1185;22925;-61
2022/01/16 09:07:32;;;;;;;11.20;3.70;;;;;;;4.66;58.09;101350.81;117420;1182;23582;-63
2022/01/16 09:10:20;;;;;;;5.50;2.80;;;;;;;4.67;57.81;101354.83;117393;1182;23448;-64
2022/01/16 09:12:48;;;;;;;6.60;3.10;;;;;;;4.69;57.93;101346.71;117434;1182;22928;-64
2022/01/16 09:15:16;;;;;;;5.40;2.80;;;;;;;4.71;58.00;101348.35;117378;1183;23355;-54
2022/01/16 09:17:44;;;;;;;5.60;2.40;;;;;;;4.74;57.77;101348.62;117367;1185;23538;-63
2022/01/16 09:20:16;;;;;;;9.40;2.60;;;;;;;4.76;57.84;101345.35;117393;1185;23448;-54
2022/01/16 09:22:45;;;;;;;5.10;2.50;;;;;;;4.77;58.01;101346.06;119305;1185;23448;-64
2022/01/16 09:25:13;;;;;;;7.10;2.50;;;;;;;4.79;57.91;101348.21;117397;1185;21908;-54
2022/01/16 09:27:42;;;;;;;9.60;3.40;;;;;;;4.81;58.07;101342.20;117413;1185;21957;-52
2022/01/16 09:30:10;;;;;;;6.90;2.50;;;;;;;4.82;57.91;101335.44;117420;1183;23452;-65
2022/01/16 09:32:39;;;;;;;8.30;2.30;;;;;;;4.86;57.87;101331.53;117398;1183;23599;-64
2022/01/16 09:35:08;;;;;;;5.70;2.30;;;;;;;4.88;57.80;101319.40;117454;1183;23448;-54
2022/01/16 09:37:37;;;;;;;10.80;2.70;;;;;;;4.90;57.98;101313.55;117401;1185;21857;-65
2022/01/16 09:40:06;;;;;;;7.30;3.20;;;;;;;4.94;57.72;101313.80;117419;1183;21988;-54
2022/01/16 09:42:35;;;;;;;6.70;2.70;;;;;;;4.98;58.04;101316.55;117368;1185;21870;-54
2022/01/16 09:45:04;;;;;;;5.30;2.00;;;;;;;5.04;58.02;101318.42;117461;1182;24161;-65
2022/01/16 09:47:32;;;;;;;8.70;2.30;;;;;;;5.09;58.07;101318.90;117270;1182;22708;-53
2022/01/16 09:50:04;;;;;;;8.90;2.80;;;;;;;5.15;58.07;101317.10;117378;1185;24273;-58
2022/01/16 09:52:37;;;;;;;8.30;2.50;;;;;;;5.26;57.73;101316.02;117374;1185;22962;-63
2022/01/16 09:55:06;;;;;;;7.00;2.30;;;;;;;5.32;57.71;101310.75;117417;1182;21860;-63
2022/01/16 09:57:34;;;;;;;6.40;2.60;;;;;;;5.34;57.84;101305.41;117328;1185;21863;-63
2022/01/16 10:00:07;;;;;;;5.80;2.20;;;;;;;5.39;57.75;101302.05;117456;1185;21870;-55
2022/01/16 10:02:35;;;;;;;8.00;2.60;;;;;;;5.42;57.72;101300.39;117392;1185;21875;-63
2022/01/16 10:05:30;;;;;;;8.10;2.40;;;;;;;5.46;57.87;101301.69;117398;1182;21891;-54
2022/01/16 10:08:00;;;;;;;11.70;3.30;;;;;;;5.49;57.72;101298.30;117437;1183;23452;-64
2022/01/16 10:10:31;;;;;;;3.90;1.90;;;;;;;5.49;57.77;101291.16;117379;1182;23690;-54
2022/01/16 10:13:07;;;;;;;4.50;1.50;;;;;;;5.51;57.66;101292.24;117404;1186;21904;-64
2022/01/16 10:15:35;;;;;;;4.90;1.90;;;;;;;5.55;57.82;101293.52;117224;1183;22648;-55
2022/01/16 10:18:40;;;;;;;4.30;1.60;;;;;;;5.62;57.78;101301.20;117878;1185;23713;-56
2022/01/16 10:21:09;;;;;;;2.50;1.30;;;;;;;5.68;57.62;101302.02;117403;1185;21935;-55
2022/01/16 10:23:42;;;;;;;6.10;1.70;;;;;;;5.71;57.59;101304.17;117445;1184;22654;-64
2022/01/16 10:26:21;;;;;;;4.00;2.00;;;;;;;5.72;57.69;101304.91;117450;1185;22664;-55
2022/01/16 10:28:50;;;;;;;4.20;1.70;;;;;;;5.75;57.80;101304.45;117422;1180;23547;-54
2022/01/16 10:31:20;;;;;;;3.70;1.40;;;;;;;5.75;57.52;101295.73;117422;1186;22021;-61
2022/01/16 10:33:49;;;;;;;4.60;1.90;;;;;;;5.79;57.70;101299.48;117371;1186;22973;-55
2022/01/16 10:36:32;;;;;;;5.40;1.80;;;;;;;5.81;57.74;101297.79;117382;1185;22905;-64
2022/01/16 10:39:05;;;;;;;4.70;1.90;;;;;;;5.84;57.47;101299.05;117391;1186;23620;-64
2022/01/16 10:41:34;;;;;;;5.50;1.80;;;;;;;5.85;57.50;101298.57;117434;1186;21867;-64
2022/01/16 10:44:02;;;;;;;6.80;1.70;;;;;;;5.88;57.77;101299.84;117452;1181;23556;-54
2022/01/16 10:46:30;;;;;;;5.00;1.60;;;;;;;5.88;57.64;101295.14;117387;1185;21870;-64
2022/01/16 10:49:31;;;;;;;5.90;1.80;;;;;;;5.90;57.51;101294.15;117362;1185;23682;-64
2022/01/16 10:52:12;;;;;;;6.20;2.10;;;;;;;5.91;57.36;101294.16;116851;1188;23679;-55
2022/01/16 10:54:40;;;;;;;;;;;;;;;5.88;57.29;101289.56;116939;1188;23929;-64
2022/01/16 10:57:20;;;;;;;3.30;1.30;;;;;;;5.82;57.27;101289.09;116847;1188;22841;-64
2022/01/16 10:59:48;;;;;;;2.30;1.00;;;;;;;5.78;57.41;101292.31;116895;1189;21864;-65
2022/01/16 11:02:17;;;;;;;3.90;1.20;;;;;;;5.76;57.47;101289.31;117362;1189;22322;-64
2022/01/16 11:04:45;;;;;;;3.20;1.10;;;;;;;5.76;57.54;101285.30;116778;1187;23587;-55
2022/01/16 11:07:13;;;;;;;3.00;1.10;;;;;;;5.78;57.42;101286.04;116808;1189;22935;-64
2022/01/16 11:09:41;;;;;;;2.60;1.00;;;;;;;5.79;57.24;101288.68;116743;1190;23964;-55
2022/01/16 11:12:10;;;;;;;3.70;1.00;;;;;;;5.75;57.42;101292.23;116781;1189;21865;-64
2022/01/16 11:14:39;;;;;;;3.50;1.30;;;;;;;5.72;57.01;101289.95;116928;1188;23690;-55
2022/01/16 11:17:12;;;;;;;4.30;0.90;;;;;;;5.70;57.33;101285.55;116890;1185;22713;-65
2022/01/16 11:19:40;;;;;;;4.90;1.00;;;;;;;5.74;57.16;101287.52;116701;1189;23686;-64
2022/01/16 11:22:11;;;;;;;3.20;1.10;;;;;;;5.79;57.37;101289.73;116967;1181;21861;-56
2022/01/16 11:25:00;;;;;;;4.80;1.50;;;;;;;5.68;57.08;101286.19;116778;1188;23748;-56
2022/01/16 11:27:40;;;;;;;4.50;1.50;;;;;;;5.66;57.07;101278.99;117001;1185;21881;-65
2022/01/16 11:30:08;;;;;;;5.20;1.00;;;;;;;5.59;56.89;101281.28;117375;1182;21860;-65
2022/01/16 11:32:36;;;;;;;3.50;1.30;;;;;;;5.56;57.13;101280.16;117441;1185;22622;-56
2022/01/16 11:35:05;;;;;;;4.30;1.10;;;;;;;5.56;57.04;101274.59;117179;1182;22848;-64
2022/01/16 11:37:35;;;;;;;3.80;1.30;;;;;;;5.54;57.01;101274.17;117381;1186;21912;-64
2022/01/16 11:40:52;;;;;;;4.80;2.20;;;;;;;5.49;56.88;101272.18;117198;1182;21857;-64
2022/01/16 11:43:35;;;;;;;5.70;1.40;;;;;;;5.49;57.15;101267.13;117379;1185;23546;-65
2022/01/16 11:46:19;;;;;;;5.70;1.50;;;;;;;5.52;57.08;101270.84;117745;1184;21895;-56
2022/01/16 11:48:58;;;;;;;4.30;1.20;;;;;;;5.49;57.06;101273.73;117554;1182;23629;-59
2022/01/16 11:51:51;;;;;;;;;;;;;;;5.47;56.94;101279.27;117392;1182;23450;-65
2022/01/16 11:54:34;;;;;;;3.40;1.10;;;;;;;5.44;57.03;101276.05;117303;1185;23032;-56
2022/01/16 11:57:17;;;;;;;2.80;1.10;;;;;;;5.41;56.88;101272.52;117307;1185;23613;-64
2022/01/16 11:59:47;;;;;;;3.90;1.20;;;;;;;5.41;56.80;101277.37;117331;1185;22978;-56
2022/01/16 12:02:17;;;;;;;5.60;1.50;;;;;;;5.41;56.95;101280.70;117347;1183;21860;-65
2022/01/16 12:04:46;;;;;;;6.10;1.60;;;;;;;5.42;56.99;101279.84;117319;1179;21898;-63
2022/01/16 12:07:19;;;;;;;3.50;1.30;;;;;;;5.40;56.59;101272.83;117377;1185;22989;-55
2022/01/16 12:09:50;;;;;;;3.30;1.40;;;;;;;5.38;56.90;101274.88;117372;1182;23597;-65
2022/01/16 12:12:18;;;;;;;6.20;1.70;;;;;;;5.33;56.85;101273.55;117386;1176;21867;-55
2022/01/16 12:14:50;;;;;;;3.60;1.40;;;;;;;5.16;57.04;101274.17;117348;1180;23474;-56
2022/01/16 12:17:26;;;;;;;5.10;1.60;;;;;;;5.22;57.29;101278.51;117307;1185;21881;-55
2022/01/16 12:19:55;;;;;;;5.00;1.60;;;;;;;5.26;57.01;101279.64;117321;1185;23725;-56